Time;durP1;ratioP1;P1;durP2;ratioP2;P2;SDS_P1;SDS_P2;PMS_P1;PMS_P2;Temp;Humidity;BMP_temperature;BMP_pressure;BME280_temperature;BME280_humidity;BME280_pressure;Samples;Min_cycle;Max_cycle;Signal;HPM_P1;HPM_P2
2021/01/27 00:01:32;;;;;;;5.50;2.57;;;0.30;99.90;;;;;;5272780;28;20615;-70
2021/01/27 00:04:05;;;;;;;4.37;2.27;;;0.30;99.90;;;;;;5273546;28;20598;-72
2021/01/27 00:06:37;;;;;;;4.73;2.77;;;0.30;99.90;;;;;;5272372;28;20188;-73
2021/01/27 00:09:08;;;;;;;6.70;2.00;;;0.30;99.90;;;;;;5272140;28;20553;-72
2021/01/27 00:11:40;;;;;;;3.47;1.70;;;0.30;99.90;;;;;;5271376;28;20192;-72
2021/01/27 00:14:11;;;;;;;5.50;2.20;;;0.30;99.90;;;;;;5271568;28;20185;-71
2021/01/27 00:16:43;;;;;;;3.63;2.10;;;0.30;99.90;;;;;;5271714;28;20576;-74
2021/01/27 00:19:14;;;;;;;5.43;2.40;;;0.20;99.90;;;;;;5253494;28;20721;-72
2021/01/27 00:21:46;;;;;;;6.17;2.93;;;0.20;99.90;;;;;;5271486;28;20203;-74
2021/01/27 00:24:17;;;;;;;8.37;2.40;;;0.20;99.90;;;;;;5271657;28;20195;-72
2021/01/27 00:26:49;;;;;;;4.20;2.63;;;0.20;99.90;;;;;;5271058;28;20203;-73
2021/01/27 00:29:21;;;;;;;5.33;2.47;;;0.20;99.90;;;;;;5270860;28;20193;-72
2021/01/27 00:31:53;;;;;;;6.03;2.87;;;0.20;99.90;;;;;;5271258;28;20242;-72
2021/01/27 00:34:25;;;;;;;4.13;2.60;;;0.20;99.90;;;;;;5271552;28;20194;-71
2021/01/27 00:36:56;;;;;;;6.80;2.47;;;0.20;99.90;;;;;;5253137;28;20705;-73
2021/01/27 00:39:27;;;;;;;5.37;2.77;;;0.20;99.90;;;;;;5271421;28;20260;-73
2021/01/27 00:41:59;;;;;;;3.80;2.30;;;0.20;99.90;;;;;;5253516;28;20566;-71
2021/01/27 00:44:30;;;;;;;3.23;2.07;;;0.30;99.90;;;;;;5271883;28;20207;-72
2021/01/27 00:47:02;;;;;;;5.10;2.50;;;0.30;99.90;;;;;;5271402;28;20192;-72
2021/01/27 00:49:33;;;;;;;5.60;2.23;;;0.30;99.90;;;;;;5253582;28;20203;-73
2021/01/27 00:52:05;;;;;;;6.87;2.50;;;0.30;99.90;;;;;;5272179;28;20197;-72
2021/01/27 00:54:37;;;;;;;4.80;2.23;;;0.30;99.90;;;;;;5270798;28;20192;-73
2021/01/27 00:57:08;;;;;;;3.40;2.07;;;0.30;99.90;;;;;;5269660;28;20670;-71
2021/01/27 00:59:40;;;;;;;4.17;1.93;;;0.30;99.90;;;;;;5270854;28;20192;-71
2021/01/27 01:02:11;;;;;;;3.87;1.73;;;0.30;99.90;;;;;;5270654;28;20192;-72
2021/01/27 01:04:43;;;;;;;3.27;1.70;;;0.30;99.90;;;;;;5269461;28;20236;-72
2021/01/27 01:07:14;;;;;;;3.57;1.47;;;0.30;99.90;;;;;;5271527;28;20612;-72
2021/01/27 01:09:46;;;;;;;2.47;1.40;;;0.30;99.90;;;;;;5270183;28;20195;-72
2021/01/27 01:12:17;;;;;;;5.03;1.47;;;0.30;99.90;;;;;;5251957;28;20196;-71
2021/01/27 01:14:49;;;;;;;3.93;1.57;;;0.30;99.90;;;;;;5251905;28;20188;-73
2021/01/27 01:17:20;;;;;;;2.83;1.70;;;0.30;99.90;;;;;;5252120;28;20212;-70
2021/01/27 01:19:52;;;;;;;2.90;1.63;;;0.30;99.90;;;;;;5261579;28;20230;-72
2021/01/27 01:22:25;;;;;;;5.43;1.50;;;0.30;99.90;;;;;;5269694;28;20196;-73
2021/01/27 01:24:56;;;;;;;3.13;1.67;;;0.30;99.90;;;;;;5270465;28;20236;-71
2021/01/27 01:27:28;;;;;;;3.00;1.60;;;0.30;99.90;;;;;;5252188;28;20203;-72
2021/01/27 01:29:59;;;;;;;4.53;1.53;;;0.30;99.90;;;;;;5276077;28;20282;-71
2021/01/27 01:32:31;;;;;;;2.30;1.40;;;0.30;99.90;;;;;;5270106;28;20193;-71
2021/01/27 01:35:03;;;;;;;3.90;1.57;;;0.20;99.90;;;;;;5271681;28;20203;-73
2021/01/27 01:37:35;;;;;;;2.80;1.70;;;0.20;99.90;;;;;;5270370;28;20220;-72
2021/01/27 01:40:08;;;;;;;2.80;1.40;;;0.30;99.90;;;;;;5269829;28;20188;-71
2021/01/27 01:42:40;;;;;;;5.37;1.70;;;0.30;99.90;;;;;;5269407;28;20640;-73
2021/01/27 01:45:35;;;;;;;2.67;1.60;;;0.30;99.90;;;;;;5271240;28;20276;-72
2021/01/27 01:51:57;;;;;;;3.90;1.47;;;0.30;99.90;;;;;;5269455;28;20179;-72
2021/01/27 01:54:33;;;;;;;3.47;1.40;;;0.30;99.90;;;;;;5269483;28;20188;-71
2021/01/27 01:57:14;;;;;;;4.10;1.30;;;0.30;99.90;;;;;;5269418;28;20218;-71
2021/01/27 01:59:55;;;;;;;3.47;1.53;;;0.30;99.90;;;;;;5269547;28;20556;-71
2021/01/27 02:02:27;;;;;;;2.80;1.20;;;0.30;99.90;;;;;;5269182;28;20195;-72
2021/01/27 02:09:36;;;;;;;5.40;1.60;;;0.30;99.90;;;;;;5248215;28;20187;-73
2021/01/27 02:12:23;;;;;;;5.13;1.90;;;0.30;99.90;;;;;;5248563;28;20207;-73
2021/01/27 02:15:13;;;;;;;3.30;1.53;;;0.30;99.90;;;;;;5248225;28;20199;-72
2021/01/27 02:18:04;;;;;;;6.40;1.60;;;0.30;99.90;;;;;;5249034;28;20319;-71
2021/01/27 02:25:08;;;;;;;6.33;1.70;;;0.30;99.90;;;;;;5205122;28;20257;-72
2021/01/27 02:27:49;;;;;;;4.83;2.10;;;0.30;99.90;;;;;;5202282;28;20656;-74
2021/01/27 02:30:42;;;;;;;3.97;1.80;;;0.30;99.90;;;;;;5204989;28;20202;-72
2021/01/27 02:37:13;;;;;;;4.90;1.70;;;0.30;99.90;;;;;;5204480;28;20252;-72
2021/01/27 02:39:53;;;;;;;2.97;1.50;;;0.30;99.90;;;;;;5245457;28;20211;-73
2021/01/27 02:42:50;;;;;;;4.50;1.43;;;0.30;99.90;;;;;;5247947;28;20207;-72
2021/01/27 02:45:26;;;;;;;4.00;1.60;;;0.30;99.90;;;;;;5248135;28;20189;-72
2021/01/27 02:48:09;;;;;;;1.93;1.10;;;0.30;99.90;;;;;;5249661;28;20200;-72
2021/01/27 02:55:19;;;;;;;3.67;1.13;;;0.30;99.90;;;;;;5204847;28;20208;-72
2021/01/27 02:58:00;;;;;;;1.83;1.17;;;0.30;99.90;;;;;;5204084;28;20222;-73
2021/01/27 03:00:40;;;;;;;3.07;1.00;;;0.30;99.90;;;;;;5204397;28;20206;-72
2021/01/27 03:07:08;;;;;;;1.80;1.00;;;0.30;99.90;;;;;;5204719;28;20213;-71
2021/01/27 03:09:46;;;;;;;4.90;1.10;;;0.30;99.90;;;;;;5189214;28;20217;-72
2021/01/27 03:12:17;;;;;;;3.13;1.10;;;0.30;99.90;;;;;;5205940;28;20209;-72
2021/01/27 03:14:49;;;;;;;2.90;1.33;;;0.30;99.90;;;;;;5206043;28;20317;-72
2021/01/27 03:17:22;;;;;;;2.40;1.30;;;0.30;99.90;;;;;;5189253;28;20249;-71
2021/01/27 03:23:55;;;;;;;1.73;0.97;;;0.40;99.90;;;;;;5208659;28;20170;-72
2021/01/27 03:26:39;;;;;;;3.33;1.10;;;0.40;99.90;;;;;;5191499;28;20210;-71
2021/01/27 03:29:33;;;;;;;2.33;1.20;;;0.30;99.90;;;;;;5247690;28;20596;-71
2021/01/27 03:32:11;;;;;;;3.10;1.00;;;0.30;99.90;;;;;;5252151;28;20201;-72
2021/01/27 03:34:48;;;;;;;3.43;1.10;;;0.30;99.90;;;;;;5252136;28;20195;-72
2021/01/27 03:37:39;;;;;;;3.17;1.10;;;0.30;99.90;;;;;;5251099;28;20227;-72
2021/01/27 03:40:14;;;;;;;2.67;1.23;;;0.30;99.90;;;;;;5251043;28;20197;-71
2021/01/27 03:43:09;;;;;;;1.37;1.00;;;0.30;99.90;;;;;;5252731;28;20189;-71
2021/01/27 03:45:49;;;;;;;3.40;1.10;;;0.20;99.90;;;;;;5251207;28;20288;-72
2021/01/27 03:52:19;;;;;;;3.23;0.97;;;0.10;99.90;;;;;;5250762;28;20183;-72
2021/01/27 03:55:05;;;;;;;1.67;1.13;;;0.10;99.90;;;;;;5251097;28;20200;-72
2021/01/27 03:57:40;;;;;;;3.83;1.40;;;0.10;99.90;;;;;;5252246;28;20303;-72
2021/01/27 04:00:12;;;;;;;3.27;1.60;;;0.10;99.90;;;;;;5252143;28;20196;-70
2021/01/27 04:02:44;;;;;;;2.20;1.40;;;0.10;99.90;;;;;;5251221;28;20189;-71
2021/01/27 04:09:12;;;;;;;5.07;1.77;;;0.10;99.90;;;;;;5269713;28;20215;-71
2021/01/27 04:11:44;;;;;;;2.67;1.63;;;0.00;99.90;;;;;;5272405;28;20200;-71
2021/01/27 04:14:16;;;;;;;3.13;1.63;;;0.00;99.90;;;;;;5272120;28;20654;-72
2021/01/27 04:16:47;;;;;;;4.97;1.57;;;0.00;99.90;;;;;;5271433;28;20196;-72
2021/01/27 04:23:05;;;;;;;3.63;1.43;;;0.00;99.90;;;;;;5271170;28;20210;-70
2021/01/27 04:25:36;;;;;;;4.17;1.60;;;-0.10;99.90;;;;;;5271319;28;20282;-69
2021/01/27 04:28:08;;;;;;;3.43;1.60;;;-0.20;99.90;;;;;;5272282;28;20639;-71
2021/01/27 04:30:40;;;;;;;2.53;1.40;;;-0.20;99.90;;;;;;5272665;28;20646;-71
2021/01/27 04:33:11;;;;;;;2.50;1.50;;;-0.20;99.90;;;;;;5271579;28;20631;-70
2021/01/27 04:39:29;;;;;;;3.93;1.57;;;-0.30;99.90;;;;;;5271198;28;20188;-70
2021/01/27 04:42:01;;;;;;;3.17;1.50;;;-0.30;99.90;;;;;;5271039;28;20634;-71
2021/01/27 04:44:33;;;;;;;4.40;1.37;;;-0.30;99.90;;;;;;5271004;28;20660;-71
2021/01/27 04:47:18;;;;;;;4.20;1.40;;;-0.40;99.90;;;;;;5270837;28;20220;-70
2021/01/27 04:49:58;;;;;;;3.00;1.67;;;-0.40;99.90;;;;;;5272391;28;20191;-69
2021/01/27 04:52:51;;;;;;;5.40;1.70;;;-0.40;99.90;;;;;;5273045;28;20257;-70
2021/01/27 04:55:45;;;;;;;4.97;1.60;;;-0.50;99.90;;;;;;5272882;28;20549;-69
2021/01/27 04:58:41;;;;;;;5.07;1.43;;;-0.50;99.90;;;;;;5271002;28;20554;-69
2021/01/27 05:01:15;;;;;;;3.57;1.80;;;-0.50;99.90;;;;;;5271057;28;20199;-71
2021/01/27 05:07:42;;;;;;;8.90;2.40;;;-0.60;99.90;;;;;;5270124;28;20263;-69
2021/01/27 05:10:38;;;;;;;5.20;2.67;;;-0.60;99.90;;;;;;5271222;28;20237;-70
2021/01/27 05:13:41;;;;;;;4.83;2.20;;;-0.60;99.90;;;;;;5257646;28;20200;-69
2021/01/27 05:16:22;;;;;;;8.27;2.20;;;-0.70;99.90;;;;;;5270235;28;20192;-69
2021/01/27 05:19:00;;;;;;;2.00;1.53;;;-0.70;99.90;;;;;;5270042;28;20215;-70
2021/01/27 05:21:38;;;;;;;2.80;1.90;;;-0.70;99.90;;;;;;5270581;28;20224;-70
2021/01/27 05:24:09;;;;;;;8.03;3.10;;;-0.70;99.90;;;;;;5270515;28;20192;-70
2021/01/27 05:26:57;;;;;;;4.73;2.40;;;-0.70;99.90;;;;;;5271101;28;20654;-69
2021/01/27 05:29:40;;;;;;;4.80;2.10;;;-0.70;99.90;;;;;;5272203;28;20203;-72
2021/01/27 05:32:16;;;;;;;4.00;2.37;;;-0.70;99.90;;;;;;5270245;28;20196;-73
2021/01/27 05:34:50;;;;;;;6.17;2.07;;;-0.80;99.90;;;;;;5272313;28;20196;-70
2021/01/27 05:37:27;;;;;;;4.43;2.20;;;-0.80;99.90;;;;;;5271779;28;20571;-70
2021/01/27 05:40:18;;;;;;;5.90;2.50;;;-0.80;99.90;;;;;;5273115;28;20230;-72
2021/01/27 05:42:50;;;;;;;5.70;2.27;;;-0.80;99.90;;;;;;5271211;28;20188;-71
2021/01/27 05:45:30;;;;;;;5.37;2.23;;;-0.80;99.90;;;;;;5270652;28;20199;-72
2021/01/27 05:48:26;;;;;;;5.47;2.37;;;-0.80;99.90;;;;;;5270883;28;20211;-72
2021/01/27 05:51:01;;;;;;;5.90;2.73;;;-0.80;99.90;;;;;;5270251;28;20191;-74
2021/01/27 05:53:33;;;;;;;3.80;2.20;;;-0.80;99.90;;;;;;5252445;28;20617;-72
2021/01/27 05:56:16;;;;;;;5.73;3.00;;;-0.80;99.90;;;;;;5272201;28;20654;-73
2021/01/27 05:58:55;;;;;;;4.90;2.23;;;-0.80;99.90;;;;;;5272768;28;20215;-72
2021/01/27 06:01:44;;;;;;;3.73;2.00;;;-0.80;99.90;;;;;;5272579;28;20713;-71
2021/01/27 06:08:34;;;;;;;5.47;2.20;;;-0.80;99.90;;;;;;5271201;28;20217;-73
2021/01/27 06:11:12;;;;;;;3.53;1.67;;;-0.80;99.90;;;;;;5190668;28;20209;-72
2021/01/27 06:13:44;;;;;;;3.70;1.97;;;-0.80;99.90;;;;;;5205873;28;20206;-70
2021/01/27 06:16:22;;;;;;;4.93;2.20;;;-0.90;99.90;;;;;;5206152;28;20206;-73
2021/01/27 06:19:09;;;;;;;4.53;2.13;;;-0.90;99.90;;;;;;5206618;28;20218;-75
2021/01/27 06:22:04;;;;;;;4.83;1.63;;;-0.90;99.90;;;;;;5205367;28;20209;-74
2021/01/27 06:24:56;;;;;;;3.37;2.73;;;-1.00;99.90;;;;;;5144379;28;20307;-75
2021/01/27 06:27:49;;;;;;;6.63;2.47;;;-1.00;99.90;;;;;;5144534;28;20224;-75
2021/01/27 06:30:23;;;;;;;7.33;2.20;;;-1.10;99.90;;;;;;5145415;28;20652;-73
2021/01/27 06:33:01;;;;;;;6.27;2.20;;;-1.10;99.90;;;;;;5144736;28;20231;-71
2021/01/27 06:35:42;;;;;;;5.30;2.40;;;-1.10;99.90;;;;;;5145563;28;20213;-71
2021/01/27 06:38:16;;;;;;;6.83;2.57;;;-1.00;99.90;;;;;;5144935;28;20226;-69
2021/01/27 06:41:09;;;;;;;5.27;2.50;;;-1.10;99.90;;;;;;5145442;28;20219;-72
2021/01/27 06:44:09;;;;;;;8.23;2.90;;;-1.10;99.90;;;;;;5144803;28;20562;-71
2021/01/27 06:47:02;;;;;;;7.90;2.73;;;-1.20;99.90;;;;;;5176298;28;20210;-73
2021/01/27 06:50:12;;;;;;;6.73;3.17;;;-1.20;99.90;;;;;;5205432;28;20354;-72
2021/01/27 06:52:52;;;;;;;8.97;3.63;;;-1.20;99.90;;;;;;5207475;28;20234;-71
2021/01/27 06:55:57;;;;;;;6.80;3.40;;;-1.30;99.90;;;;;;5210093;28;20209;-72
2021/01/27 06:58:34;;;;;;;11.83;4.40;;;-1.30;99.90;;;;;;5211004;28;20360;-74
2021/01/27 07:01:05;;;;;;;9.17;4.50;;;-1.30;99.90;;;;;;5229543;28;20625;-71
2021/01/27 07:03:40;;;;;;;10.20;4.30;;;-1.30;99.90;;;;;;5270632;28;20224;-72
2021/01/27 07:06:57;;;;;;;8.87;4.70;;;-1.30;99.90;;;;;;5272658;28;20190;-70
2021/01/27 07:10:08;;;;;;;9.67;5.03;;;-1.30;99.90;;;;;;5274321;28;20327;-72
2021/01/27 07:12:46;;;;;;;11.83;4.93;;;-1.30;99.90;;;;;;5203736;28;20200;-71
2021/01/27 07:15:38;;;;;;;11.67;4.63;;;-1.30;99.90;;;;;;5207586;28;20264;-70
2021/01/27 07:18:15;;;;;;;10.17;4.67;;;-1.20;99.90;;;;;;5208261;28;20737;-70
2021/01/27 07:20:51;;;;;;;9.60;4.20;;;-1.20;99.90;;;;;;5209055;28;20197;-71
2021/01/27 07:23:47;;;;;;;9.60;4.50;;;-1.20;99.90;;;;;;5209690;28;20213;-71
2021/01/27 07:26:25;;;;;;;9.40;4.17;;;-1.10;99.90;;;;;;5208915;28;20308;-70
2021/01/27 07:29:12;;;;;;;9.27;4.10;;;-1.00;99.90;;;;;;5209251;28;20197;-70
2021/01/27 07:32:09;;;;;;;9.77;4.93;;;-1.00;99.90;;;;;;5209062;28;20204;-71
2021/01/27 07:38:39;;;;;;;15.10;5.63;;;-0.80;99.90;;;;;;5147932;28;20226;-71
2021/01/27 07:41:17;;;;;;;13.67;6.03;;;-0.80;99.90;;;;;;5147317;28;20203;-71
2021/01/27 07:44:03;;;;;;;15.50;6.17;;;-0.70;99.90;;;;;;5147447;28;20204;-72
2021/01/27 07:46:42;;;;;;;14.85;7.65;;;-0.70;99.90;;;;;;5146549;28;20513;-74
2021/01/27 07:53:26;;;;;;;13.80;6.90;;;-0.60;99.90;;;;;;5206817;28;20391;-69
2021/01/27 07:56:22;;;;;;;13.37;6.03;;;-0.50;99.90;;;;;;5207910;28;20288;-69
2021/01/27 07:59:08;;;;;;;15.93;6.90;;;-0.50;99.90;;;;;;5208178;28;20615;-69
2021/01/27 08:01:46;;;;;;;16.37;7.17;;;-0.40;99.90;;;;;;5208390;28;20194;-69
2021/01/27 08:04:33;;;;;;;13.47;7.27;;;-0.40;99.90;;;;;;5208415;28;20604;-71
2021/01/27 08:07:05;;;;;;;17.57;7.50;;;-0.30;99.90;;;;;;5209829;28;20217;-73
2021/01/27 08:09:42;;;;;;;20.27;7.90;;;-0.30;99.90;;;;;;5192342;28;20600;-71
2021/01/27 08:12:30;;;;;;;12.13;5.87;;;-0.20;99.90;;;;;;5256734;28;20294;-70
2021/01/27 08:15:04;;;;;;;9.80;4.53;;;-0.20;99.90;;;;;;5264738;28;20187;-69
2021/01/27 08:17:37;;;;;;;10.53;4.70;;;-0.10;99.90;;;;;;5271150;28;20227;-72
2021/01/27 08:20:36;;;;;;;13.07;5.17;;;-0.10;99.90;;;;;;5270060;28;20204;-71
2021/01/27 08:23:23;;;;;;;9.77;4.67;;;0.00;99.90;;;;;;5272593;28;20202;-70
2021/01/27 08:25:58;;;;;;;14.13;5.03;;;0.00;99.90;;;;;;5271761;28;20569;-70
2021/01/27 08:28:36;;;;;;;11.30;4.80;;;0.10;99.90;;;;;;5253990;28;20547;-69
2021/01/27 08:31:07;;;;;;;14.40;4.80;;;0.20;99.90;;;;;;5271962;28;20200;-69
2021/01/27 08:33:42;;;;;;;9.70;4.67;;;0.20;99.90;;;;;;5271422;28;20193;-70
2021/01/27 08:36:22;;;;;;;10.20;4.47;;;0.20;99.90;;;;;;5271333;28;20200;-69
2021/01/27 08:38:57;;;;;;;8.87;3.97;;;0.30;99.90;;;;;;5272002;28;20224;-70
2021/01/27 08:42:19;;;;;;;9.37;4.00;;;0.30;99.90;;;;;;5271548;28;20198;-69
2021/01/27 08:44:53;;;;;;;8.00;3.43;;;0.30;99.90;;;;;;5271881;28;20551;-74
2021/01/27 08:47:38;;;;;;;8.40;3.73;;;0.40;99.90;;;;;;5271950;28;20555;-71
2021/01/27 08:54:28;;;;;;;7.17;3.37;;;0.50;99.90;;;;;;5272695;28;20175;-77
2021/01/27 08:57:23;;;;;;;10.00;3.90;;;0.60;99.90;;;;;;5274579;28;20278;-76
2021/01/27 09:00:18;;;;;;;9.03;3.93;;;0.60;99.90;;;;;;5272739;28;20198;-77
2021/01/27 09:03:00;;;;;;;5.57;3.20;;;0.70;99.90;;;;;;5271175;28;20567;-76
2021/01/27 09:05:32;;;;;;;8.33;3.60;;;0.70;99.90;;;;;;5271200;28;20196;-77
2021/01/27 09:08:03;;;;;;;8.37;3.40;;;0.80;99.90;;;;;;5270257;28;20235;-78
2021/01/27 09:10:38;;;;;;;6.67;2.80;;;0.90;99.90;;;;;;5273028;28;20192;-74
2021/01/27 09:13:38;;;;;;;9.83;3.17;;;1.00;99.90;;;;;;5271099;28;20192;-79
2021/01/27 09:16:26;;;;;;;12.70;3.20;;;1.00;99.90;;;;;;5270393;28;20275;-78
2021/01/27 09:19:17;;;;;;;5.07;2.70;;;1.10;99.90;;;;;;5271451;28;20747;-76
2021/01/27 09:22:22;;;;;;;8.00;3.07;;;1.20;99.90;;;;;;5270862;28;20204;-71
2021/01/27 09:24:56;;;;;;;7.30;2.83;;;1.30;99.90;;;;;;5206752;28;20216;-75
2021/01/27 09:27:31;;;;;;;9.07;3.67;;;1.30;99.90;;;;;;5205966;28;20195;-77
2021/01/27 09:30:10;;;;;;;6.63;3.30;;;1.40;99.90;;;;;;5217792;28;20211;-77
2021/01/27 09:32:45;;;;;;;7.83;3.40;;;1.40;99.90;;;;;;5206116;28;20268;-76
2021/01/27 09:39:02;;;;;;;5.40;2.70;;;1.50;99.90;;;;;;5206319;28;20217;-73
2021/01/27 09:41:35;;;;;;;6.57;2.47;;;1.50;99.90;;;;;;5206228;28;20224;-75
2021/01/27 09:44:22;;;;;;;6.63;2.97;;;1.50;99.90;;;;;;5190684;28;20194;-78
2021/01/27 09:46:54;;;;;;;6.53;2.77;;;1.60;99.90;;;;;;5206757;28;20198;-80
2021/01/27 09:49:26;;;;;;;5.60;2.33;;;1.60;99.90;;;;;;5207334;28;20206;-74
2021/01/27 09:55:43;;;;;;;6.23;3.03;;;1.70;99.90;;;;;;5205949;28;20225;-73
2021/01/27 09:58:15;;;;;;;7.67;2.43;;;1.80;99.90;;;;;;5205765;28;20671;-75
2021/01/27 10:00:49;;;;;;;4.77;2.27;;;1.90;99.90;;;;;;5219490;28;20273;-75
2021/01/27 10:03:32;;;;;;;8.13;2.97;;;1.90;99.90;;;;;;5251131;28;20208;-72
2021/01/27 10:06:24;;;;;;;4.80;2.30;;;1.90;99.90;;;;;;5269905;28;20200;-75
2021/01/27 10:08:57;;;;;;;6.37;2.60;;;1.90;99.90;;;;;;5251601;28;20232;-74
2021/01/27 10:11:32;;;;;;;7.63;2.43;;;2.00;99.90;;;;;;5270290;28;20202;-75
2021/01/27 10:14:12;;;;;;;6.67;2.93;;;2.00;99.90;;;;;;5252722;28;20559;-76
2021/01/27 10:16:57;;;;;;;6.57;2.70;;;2.10;99.90;;;;;;5270317;28;20257;-73
2021/01/27 10:23:32;;;;;;;8.50;3.43;;;2.20;99.90;;;;;;5266679;28;20623;-76
2021/01/27 10:26:21;;;;;;;10.33;4.30;;;2.10;99.90;;;;;;5268029;28;20210;-77
2021/01/27 10:29:36;;;;;;;8.27;3.50;;;2.20;99.90;;;;;;5272262;28;20552;-76
2021/01/27 10:32:36;;;;;;;6.23;2.50;;;2.20;99.90;;;;;;5210032;28;20697;-76
2021/01/27 10:35:22;;;;;;;7.53;3.10;;;2.20;99.90;;;;;;5208873;28;20276;-72
2021/01/27 10:38:05;;;;;;;11.43;4.23;;;2.30;99.90;;;;;;5208819;28;20237;-78
2021/01/27 10:40:36;;;;;;;8.40;3.33;;;2.40;99.90;;;;;;5208084;28;20190;-73
2021/01/27 10:43:11;;;;;;;9.17;3.13;;;2.30;99.90;;;;;;5208626;28;20210;-76
2021/01/27 10:45:43;;;;;;;5.47;2.83;;;2.30;99.90;;;;;;5209130;28;20226;-74
2021/01/27 10:48:21;;;;;;;5.00;2.53;;;2.30;99.90;;;;;;5208788;28;20621;-74
2021/01/27 10:51:07;;;;;;;8.93;2.97;;;2.40;99.90;;;;;;5205762;28;20220;-70
2021/01/27 10:53:42;;;;;;;5.40;2.27;;;2.50;99.90;;;;;;5207402;28;20205;-72
2021/01/27 10:56:16;;;;;;;7.37;2.70;;;2.50;99.90;;;;;;5208276;28;20214;-72
2021/01/27 10:58:48;;;;;;;6.03;2.40;;;2.50;99.90;;;;;;5207606;28;20332;-70
2021/01/27 11:01:20;;;;;;;7.40;2.90;;;2.50;99.90;;;;;;5208260;28;20195;-72
2021/01/27 11:03:52;;;;;;;5.60;2.83;;;2.50;99.90;;;;;;5267232;28;20607;-71
2021/01/27 11:06:24;;;;;;;9.37;2.87;;;2.60;99.90;;;;;;5273546;28;20591;-76
2021/01/27 11:08:58;;;;;;;6.37;2.80;;;2.70;99.90;;;;;;5275855;28;20733;-71
2021/01/27 11:11:29;;;;;;;5.67;2.20;;;2.70;99.90;;;;;;5255250;28;20688;-70
2021/01/27 11:14:02;;;;;;;7.70;2.87;;;2.80;99.90;;;;;;5272693;28;20197;-74
2021/01/27 11:16:34;;;;;;;9.60;2.53;;;2.90;99.90;;;;;;5272838;28;20623;-78
2021/01/27 11:19:05;;;;;;;5.13;2.60;;;2.80;99.90;;;;;;5272598;28;20495;-76
2021/01/27 11:21:37;;;;;;;6.07;2.70;;;2.90;99.90;;;;;;5279243;28;20283;-77
2021/01/27 11:24:09;;;;;;;9.50;2.73;;;2.90;99.90;;;;;;5257260;28;20199;-77
2021/01/27 11:26:42;;;;;;;4.47;2.00;;;2.90;99.90;;;;;;5274041;28;20228;-77
2021/01/27 11:29:14;;;;;;;4.00;2.23;;;2.90;99.90;;;;;;5272739;28;20254;-77
2021/01/27 11:31:46;;;;;;;6.07;2.53;;;3.00;99.90;;;;;;5272410;28;20589;-73
2021/01/27 11:34:18;;;;;;;5.70;2.30;;;3.00;99.90;;;;;;5272293;28;20267;-78
2021/01/27 11:36:49;;;;;;;7.70;2.60;;;3.10;99.90;;;;;;5256446;28;20605;-76
2021/01/27 11:39:21;;;;;;;5.97;2.27;;;3.10;99.90;;;;;;5280033;28;20258;-80
2021/01/27 11:41:54;;;;;;;6.17;2.10;;;3.10;99.90;;;;;;5273497;28;20204;-79
2021/01/27 11:44:26;;;;;;;5.07;2.10;;;3.10;99.90;;;;;;5271557;28;20192;-79
2021/01/27 11:46:57;;;;;;;4.57;2.03;;;3.00;99.90;;;;;;5248969;28;20188;-79
2021/01/27 11:49:29;;;;;;;5.03;2.10;;;3.00;99.90;;;;;;5258298;28;20506;-80
2021/01/27 11:52:03;;;;;;;9.43;2.10;;;3.00;99.90;;;;;;5274966;28;20192;-75
2021/01/27 11:54:34;;;;;;;8.20;3.20;;;2.90;99.90;;;;;;5273587;28;20212;-79
2021/01/27 11:57:07;;;;;;;6.17;2.80;;;2.90;99.90;;;;;;5272940;28;20197;-75
2021/01/27 11:59:39;;;;;;;6.00;2.07;;;2.90;99.90;;;;;;5271536;28;20199;-74
2021/01/27 12:02:10;;;;;;;3.97;1.90;;;2.90;99.90;;;;;;5272057;28;20184;-71
2021/01/27 12:04:42;;;;;;;4.47;2.17;;;3.00;99.90;;;;;;5271724;28;20192;-74
2021/01/27 12:07:14;;;;;;;5.50;1.50;;;2.90;99.90;;;;;;5256010;28;20199;-77
2021/01/27 12:09:45;;;;;;;6.07;2.10;;;3.10;99.90;;;;;;5277913;28;20667;-76
2021/01/27 12:12:17;;;;;;;4.00;1.40;;;3.30;99.90;;;;;;5261399;28;20251;-77
2021/01/27 12:14:51;;;;;;;4.83;1.80;;;3.50;99.90;;;;;;5261839;28;20220;-74
2021/01/27 12:17:23;;;;;;;4.93;1.83;;;3.80;99.90;;;;;;5283655;28;20192;-79
2021/01/27 12:19:55;;;;;;;3.80;1.83;;;4.20;99.90;;;;;;5279526;28;20286;-78
2021/01/27 12:22:27;;;;;;;5.03;2.20;;;4.60;99.90;;;;;;5260562;28;20231;-78
2021/01/27 12:24:58;;;;;;;4.80;2.20;;;5.00;99.90;;;;;;5279368;28;20188;-74
2021/01/27 12:27:30;;;;;;;5.33;1.70;;;5.30;99.90;;;;;;5278019;28;20195;-77
2021/01/27 12:30:04;;;;;;;4.47;1.90;;;5.00;99.90;;;;;;5274409;28;20189;-72
2021/01/27 12:32:36;;;;;;;6.73;1.90;;;4.70;99.90;;;;;;5273523;28;20188;-75
2021/01/27 12:38:46;;;;;;;3.60;1.57;;;4.40;99.90;;;;;;5275735;28;20250;-74
2021/01/27 12:41:18;;;;;;;4.40;1.83;;;4.30;99.90;;;;;;5254204;28;20276;-70
2021/01/27 12:43:53;;;;;;;4.50;1.80;;;4.10;99.90;;;;;;5271746;28;20200;-72
2021/01/27 12:46:24;;;;;;;4.20;1.87;;;3.90;99.90;;;;;;5253297;28;20195;-76
2021/01/27 12:48:56;;;;;;;4.87;1.93;;;3.80;99.90;;;;;;5271656;28;20196;-73
2021/01/27 12:55:24;;;;;;;5.50;2.10;;;3.80;99.90;;;;;;5271899;28;20542;-74
2021/01/27 12:58:00;;;;;;;7.00;2.27;;;3.50;99.90;;;;;;5272493;28;20223;-67
2021/01/27 13:00:37;;;;;;;5.03;2.20;;;3.40;99.90;;;;;;5271657;28;20267;-72
2021/01/27 13:03:15;;;;;;;5.53;2.30;;;3.20;99.90;;;;;;5272021;28;20213;-75
2021/01/27 13:05:47;;;;;;;4.40;2.13;;;3.10;99.90;;;;;;5272516;28;20231;-78
2021/01/27 13:08:18;;;;;;;5.37;2.13;;;3.00;99.90;;;;;;5273060;28;20232;-76
2021/01/27 13:10:50;;;;;;;6.50;2.10;;;3.00;99.90;;;;;;5271584;28;20256;-72
2021/01/27 13:13:21;;;;;;;7.23;2.30;;;2.90;99.90;;;;;;5274075;28;20562;-75
2021/01/27 13:15:53;;;;;;;8.93;2.77;;;2.90;99.90;;;;;;5257863;28;20231;-77
2021/01/27 13:18:28;;;;;;;9.30;4.10;;;2.90;99.90;;;;;;5271683;28;20215;-73
2021/01/27 13:21:01;;;;;;;9.33;3.80;;;2.80;99.90;;;;;;5273302;28;20188;-75
2021/01/27 13:23:33;;;;;;;7.03;2.60;;;2.80;99.90;;;;;;5280713;28;20204;-73
2021/01/27 13:26:04;;;;;;;7.90;3.33;;;2.80;99.90;;;;;;5271453;28;20197;-72
2021/01/27 13:28:36;;;;;;;7.73;2.80;;;2.70;99.90;;;;;;5270611;28;20254;-77
2021/01/27 13:31:09;;;;;;;7.87;3.40;;;2.70;99.90;;;;;;5270149;28;20241;-72
2021/01/27 13:33:40;;;;;;;10.17;3.53;;;2.60;99.90;;;;;;5270607;28;20199;-73
2021/01/27 13:36:12;;;;;;;8.83;3.30;;;2.50;99.90;;;;;;5269408;28;20203;-71
2021/01/27 13:38:43;;;;;;;15.40;4.53;;;2.50;99.90;;;;;;5269794;28;20227;-70
2021/01/27 13:41:15;;;;;;;8.27;4.07;;;2.40;99.90;;;;;;5269813;28;20192;-73
2021/01/27 13:43:47;;;;;;;7.90;3.37;;;2.40;99.90;;;;;;5269732;28;20229;-72
2021/01/27 13:46:18;;;;;;;9.87;3.90;;;2.40;99.90;;;;;;5253526;28;20194;-74
2021/01/27 13:48:50;;;;;;;8.93;4.13;;;2.40;99.90;;;;;;5272465;28;20198;-78
2021/01/27 13:51:22;;;;;;;9.77;4.37;;;2.30;99.90;;;;;;5271361;28;20196;-75
2021/01/27 13:53:54;;;;;;;8.30;4.33;;;2.20;99.90;;;;;;5270773;28;20288;-76
2021/01/27 13:56:25;;;;;;;8.80;4.50;;;2.10;99.90;;;;;;5269973;28;20202;-72
2021/01/27 13:58:57;;;;;;;15.00;5.07;;;2.10;99.90;;;;;;5269473;28;20216;-75
2021/01/27 14:01:34;;;;;;;9.33;4.77;;;2.10;99.90;;;;;;5251381;28;20207;-74
2021/01/27 14:04:06;;;;;;;11.33;4.60;;;2.00;99.90;;;;;;5268751;28;20224;-70
2021/01/27 14:06:38;;;;;;;12.03;4.90;;;2.00;99.90;;;;;;5251457;28;20279;-71
2021/01/27 14:09:09;;;;;;;12.23;4.97;;;1.90;99.90;;;;;;5269226;28;20235;-73
2021/01/27 14:11:42;;;;;;;9.53;3.80;;;1.90;99.90;;;;;;5269022;28;20203;-73
2021/01/27 14:14:13;;;;;;;10.23;4.17;;;1.80;99.90;;;;;;5269291;28;20655;-74
2021/01/27 14:16:45;;;;;;;7.97;4.20;;;1.80;99.90;;;;;;5269078;28;20279;-72
2021/01/27 14:19:17;;;;;;;11.57;4.03;;;1.70;99.90;;;;;;5269601;28;20216;-72
2021/01/27 14:21:48;;;;;;;9.13;3.87;;;1.70;99.90;;;;;;5270113;28;20222;-72
2021/01/27 14:24:21;;;;;;;9.53;4.43;;;1.60;99.90;;;;;;5270337;28;20241;-73
2021/01/27 14:26:54;;;;;;;11.37;4.40;;;1.50;99.90;;;;;;5269830;28;20202;-74
2021/01/27 14:29:26;;;;;;;14.33;4.60;;;1.50;99.90;;;;;;5251472;28;20287;-75
2021/01/27 14:31:58;;;;;;;7.30;4.30;;;1.40;99.90;;;;;;5264209;28;20200;-75
2021/01/27 14:34:30;;;;;;;9.07;5.07;;;1.40;99.90;;;;;;5265376;28;20287;-75
2021/01/27 14:37:01;;;;;;;9.03;4.20;;;1.40;99.90;;;;;;5275055;28;20227;-74
2021/01/27 14:39:33;;;;;;;12.60;5.50;;;1.30;99.90;;;;;;5269575;28;20212;-72
2021/01/27 14:42:05;;;;;;;9.43;5.00;;;1.30;99.90;;;;;;5269223;28;20635;-74
2021/01/27 14:44:37;;;;;;;12.00;5.40;;;1.20;99.90;;;;;;5269322;28;20194;-72
2021/01/27 14:47:14;;;;;;;10.20;5.13;;;1.10;99.90;;;;;;5269594;28;20192;-76
2021/01/27 14:49:46;;;;;;;15.40;6.00;;;1.10;99.90;;;;;;5269270;28;20750;-74
2021/01/27 14:52:18;;;;;;;12.30;5.57;;;1.00;99.90;;;;;;5269129;28;20223;-76
2021/01/27 14:54:50;;;;;;;15.67;6.57;;;1.00;99.90;;;;;;5269073;28;20557;-75
2021/01/27 14:57:21;;;;;;;13.37;6.80;;;0.90;99.90;;;;;;5251210;28;20204;-74
2021/01/27 14:59:53;;;;;;;17.27;7.30;;;0.90;99.90;;;;;;5268570;28;20312;-74
2021/01/27 15:02:25;;;;;;;15.03;7.90;;;0.80;99.90;;;;;;5252086;28;20568;-76
2021/01/27 15:04:59;;;;;;;18.50;8.20;;;0.70;99.90;;;;;;5270372;28;20201;-74
2021/01/27 15:07:30;;;;;;;21.87;9.30;;;0.60;99.90;;;;;;5269462;28;20738;-76
2021/01/27 15:10:09;;;;;;;26.43;10.20;;;0.60;99.90;;;;;;5270286;28;20661;-74